createdAt,value
2019-01-30T00:00:28.882Z,0.50
2019-01-30T00:02:57.299Z,0.50
2019-01-30T00:05:25.705Z,0.60
2019-01-30T00:07:54.117Z,0.60
2019-01-30T00:10:22.522Z,0.60
2019-01-30T00:12:51.078Z,0.60
2019-01-30T00:15:19.699Z,0.40
2019-01-30T00:17:48.292Z,0.50
2019-01-30T00:20:16.715Z,0.50
2019-01-30T00:22:45.115Z,0.60
2019-01-30T00:25:14.676Z,0.60
2019-01-30T00:27:43.394Z,0.60
2019-01-30T00:30:15.235Z,0.60
2019-01-30T00:32:44.383Z,0.60
2019-01-30T00:35:12.954Z,0.50
2019-01-30T00:37:41.336Z,0.30
2019-01-30T00:40:16.733Z,0.40
2019-01-30T00:42:45.172Z,0.50
2019-01-30T00:45:17.939Z,0.50
2019-01-30T00:47:46.509Z,0.60
2019-01-30T00:50:17.042Z,0.60
2019-01-30T00:52:48.220Z,0.60
2019-01-30T00:55:23.638Z,0.60
2019-01-30T00:57:52.190Z,0.70
2019-01-30T01:00:27.771Z,0.70
2019-01-30T01:02:56.324Z,0.70
2019-01-30T01:05:24.780Z,0.70
2019-01-30T01:07:53.400Z,0.70
2019-01-30T01:10:25.374Z,0.70
2019-01-30T01:12:54.000Z,0.70
2019-01-30T01:15:22.977Z,0.70
2019-01-30T01:17:51.899Z,0.80
2019-01-30T01:20:22.012Z,0.90
2019-01-30T01:22:58.348Z,0.90
2019-01-30T01:25:26.892Z,0.90
2019-01-30T01:27:55.249Z,0.90
2019-01-30T01:30:30.712Z,0.90
2019-01-30T01:32:59.239Z,0.90
2019-01-30T01:35:27.555Z,0.90
2019-01-30T01:37:56.228Z,1.00
2019-01-30T01:40:24.650Z,1.00
2019-01-30T01:42:53.235Z,1.00
2019-01-30T01:45:23.415Z,1.00
2019-01-30T01:47:52.154Z,1.10
2019-01-30T01:50:22.345Z,1.10
2019-01-30T01:52:50.881Z,1.20
2019-01-30T01:55:19.336Z,1.20
2019-01-30T01:57:47.677Z,1.20
2019-01-30T02:00:42.619Z,1.20
2019-01-30T02:03:11.064Z,1.20
2019-01-30T02:05:39.581Z,1.20
2019-01-30T02:08:07.967Z,1.20
2019-01-30T02:10:36.728Z,1.20
2019-01-30T02:13:05.436Z,1.10
2019-01-30T02:15:33.811Z,1.10
2019-01-30T02:18:02.251Z,1.00
2019-01-30T02:20:33.660Z,1.10
2019-01-30T02:23:02.280Z,1.10
2019-01-30T02:25:31.026Z,1.10
2019-01-30T02:27:59.648Z,1.10
2019-01-30T02:30:30.123Z,1.10
2019-01-30T02:32:58.652Z,1.10
2019-01-30T02:35:27.438Z,1.10
2019-01-30T02:37:56.208Z,1.20
2019-01-30T02:40:25.794Z,1.10
2019-01-30T02:42:54.615Z,1.20
2019-01-30T02:45:25.584Z,1.20
2019-01-30T02:47:54.147Z,1.20
2019-01-30T02:50:22.900Z,1.20
2019-01-30T02:52:51.325Z,1.10
2019-01-30T02:55:20.375Z,1.10
2019-01-30T02:57:48.970Z,1.10
2019-01-30T03:00:20.378Z,1.10
2019-01-30T03:02:48.794Z,1.10
2019-01-30T03:05:17.293Z,1.10
2019-01-30T03:07:45.945Z,1.10
2019-01-30T03:10:19.410Z,1.10
2019-01-30T03:12:47.764Z,1.10
2019-01-30T03:15:17.792Z,1.00
2019-01-30T03:17:46.541Z,1.10
2019-01-30T03:20:18.083Z,1.10
2019-01-30T03:22:51.984Z,1.10
2019-01-30T03:25:22.426Z,1.10
2019-01-30T03:27:50.707Z,1.10
2019-01-30T03:30:30.786Z,1.10
2019-01-30T03:32:59.347Z,1.10
2019-01-30T03:35:27.995Z,1.10
2019-01-30T03:37:56.413Z,1.10
2019-01-30T03:40:24.872Z,1.10
2019-01-30T03:42:54.979Z,1.00
2019-01-30T03:45:24.310Z,1.10
2019-01-30T03:47:52.838Z,1.10
2019-01-30T03:50:21.523Z,1.10
2019-01-30T03:52:50.256Z,1.10
2019-01-30T03:55:20.511Z,1.10
2019-01-30T03:57:49.213Z,1.10
2019-01-30T04:00:20.576Z,1.10
2019-01-30T04:02:49.463Z,1.10
2019-01-30T04:05:17.963Z,1.10
2019-01-30T04:07:49.485Z,1.00
2019-01-30T04:10:20.699Z,1.00
2019-01-30T04:12:56.341Z,1.00
2019-01-30T04:15:25.098Z,1.00
2019-01-30T04:17:53.544Z,1.10
2019-01-30T04:20:22.359Z,1.10
2019-01-30T04:22:54.134Z,1.00
2019-01-30T04:25:22.799Z,1.00
2019-01-30T04:27:51.475Z,1.10
2019-01-30T04:30:24.818Z,1.10
2019-01-30T04:32:53.279Z,1.10
2019-01-30T04:35:21.927Z,1.00
2019-01-30T04:37:50.363Z,1.10
2019-01-30T04:40:20.822Z,1.00
2019-01-30T04:42:49.370Z,1.10
2019-01-30T04:45:23.576Z,1.10
2019-01-30T04:47:52.299Z,1.10
2019-01-30T04:50:20.912Z,1.10
2019-01-30T04:52:49.600Z,1.10
2019-01-30T04:55:18.380Z,1.10
2019-01-30T04:57:46.792Z,1.00
2019-01-30T05:00:18.041Z,1.00
2019-01-30T05:02:46.486Z,1.10
2019-01-30T05:05:14.871Z,1.10
2019-01-30T05:07:43.473Z,1.10
2019-01-30T05:10:13.298Z,1.10
2019-01-30T05:12:43.776Z,1.10
2019-01-30T05:15:20.079Z,1.10
2019-01-30T05:17:51.246Z,1.10
2019-01-30T05:20:21.190Z,1.10
2019-01-30T05:22:53.179Z,1.10
2019-01-30T05:25:21.704Z,1.10
2019-01-30T05:27:50.218Z,1.10
2019-01-30T05:30:28.086Z,1.00
2019-01-30T05:32:56.459Z,1.00
2019-01-30T05:35:27.552Z,1.00
2019-01-30T05:37:56.211Z,1.00
2019-01-30T05:40:24.923Z,1.00
2019-01-30T05:42:53.636Z,1.10
2019-01-30T05:45:22.391Z,1.10
2019-01-30T05:47:50.906Z,1.00
2019-01-30T05:50:20.962Z,1.10
2019-01-30T05:52:49.429Z,1.00
2019-01-30T05:55:18.432Z,1.00
2019-01-30T05:57:46.906Z,1.00
2019-01-30T06:00:53.133Z,1.10
2019-01-30T06:03:21.570Z,1.10
2019-01-30T06:05:49.917Z,1.00
2019-01-30T06:08:18.663Z,1.10
2019-01-30T06:10:47.468Z,1.00
2019-01-30T06:13:19.768Z,1.10
2019-01-30T06:15:48.378Z,1.10
2019-01-30T06:18:17.661Z,1.10
2019-01-30T06:20:45.974Z,1.20
2019-01-30T06:23:14.814Z,1.20
2019-01-30T06:25:43.544Z,1.20
2019-01-30T06:28:12.237Z,1.20
2019-01-30T06:30:40.614Z,1.10
2019-01-30T06:33:09.220Z,1.10
2019-01-30T06:35:37.506Z,1.10
2019-01-30T06:38:05.855Z,1.10
2019-01-30T06:40:34.432Z,1.10
2019-01-30T06:43:03.010Z,1.10
2019-01-30T06:45:35.391Z,1.20
2019-01-30T06:48:03.711Z,1.20
2019-01-30T06:50:32.297Z,1.20
2019-01-30T06:53:00.636Z,1.20
2019-01-30T06:55:28.915Z,1.20
2019-01-30T06:57:57.500Z,1.20
2019-01-30T07:00:26.968Z,1.20
2019-01-30T07:02:56.418Z,1.20
2019-01-30T07:05:24.900Z,1.20
2019-01-30T07:07:53.360Z,1.20
2019-01-30T07:10:24.009Z,1.20
2019-01-30T07:12:52.921Z,1.30
2019-01-30T07:15:21.510Z,1.20
2019-01-30T07:17:49.812Z,1.20
2019-01-30T07:20:18.354Z,1.20
2019-01-30T07:22:53.384Z,1.30
2019-01-30T07:25:22.462Z,1.30
2019-01-30T07:27:51.101Z,1.30
2019-01-30T07:30:25.688Z,1.40
2019-01-30T07:32:54.370Z,1.40
2019-01-30T07:35:22.702Z,1.60
2019-01-30T07:37:50.989Z,1.70
2019-01-30T07:40:19.572Z,1.80
2019-01-30T07:42:47.850Z,1.80
2019-01-30T07:45:24.922Z,1.90
2019-01-30T07:47:53.485Z,2.00
2019-01-30T07:50:22.067Z,2.10
2019-01-30T07:52:50.674Z,2.20
2019-01-30T07:55:19.181Z,2.30
2019-01-30T07:57:47.665Z,2.50
2019-01-30T08:00:21.715Z,2.90
2019-01-30T08:02:53.424Z,3.00
2019-01-30T08:05:22.749Z,3.10
2019-01-30T08:07:51.344Z,3.10
2019-01-30T08:10:19.694Z,3.10
2019-01-30T08:12:48.425Z,3.20
2019-01-30T08:15:34.951Z,3.20
2019-01-30T08:18:03.638Z,3.30
2019-01-30T08:20:31.921Z,3.40
2019-01-30T08:23:00.778Z,3.50
2019-01-30T08:25:29.535Z,3.60
2019-01-30T08:27:58.665Z,3.70
2019-01-30T08:30:29.406Z,3.80
2019-01-30T08:33:04.617Z,3.90
2019-01-30T08:35:30.470Z,4.00
2019-01-30T08:37:59.047Z,4.10
2019-01-30T08:40:27.767Z,4.10
2019-01-30T08:42:56.527Z,4.20
2019-01-30T08:45:30.062Z,4.20
2019-01-30T08:47:58.453Z,4.20
2019-01-30T08:50:27.072Z,4.30
2019-01-30T08:52:55.472Z,4.40
2019-01-30T08:55:23.819Z,4.50
2019-01-30T08:57:52.417Z,4.60
2019-01-30T09:00:28.875Z,4.70
2019-01-30T09:02:57.199Z,4.70
2019-01-30T09:05:25.884Z,4.80
2019-01-30T09:07:54.995Z,4.90
2019-01-30T09:10:25.446Z,5.00
2019-01-30T09:12:53.881Z,5.00
2019-01-30T09:15:24.385Z,4.90
2019-01-30T09:17:52.830Z,5.00
2019-01-30T09:20:23.685Z,4.90
2019-01-30T09:22:51.992Z,4.90
2019-01-30T09:25:25.741Z,5.10
2019-01-30T09:27:54.420Z,5.10
2019-01-30T09:30:26.281Z,5.30
2019-01-30T09:32:55.503Z,5.30
2019-01-30T09:35:24.866Z,5.30
2019-01-30T09:37:57.014Z,5.30
2019-01-30T09:40:27.610Z,5.30
2019-01-30T09:42:59.133Z,5.20
2019-01-30T09:45:31.132Z,5.20
2019-01-30T09:47:59.550Z,5.20
2019-01-30T09:50:27.927Z,5.30
2019-01-30T09:52:56.211Z,5.20
2019-01-30T09:55:24.580Z,5.20
2019-01-30T09:57:53.003Z,5.20
2019-01-30T10:00:24.830Z,5.30
2019-01-30T10:02:53.182Z,5.40
2019-01-30T10:05:21.564Z,5.50
2019-01-30T10:07:50.008Z,5.40
2019-01-30T10:10:38.750Z,5.50
2019-01-30T10:13:07.863Z,5.40
2019-01-30T10:15:41.694Z,5.30
2019-01-30T10:18:11.006Z,5.30
2019-01-30T10:20:41.600Z,5.40
2019-01-30T10:23:10.172Z,5.30
2019-01-30T10:25:38.514Z,5.30
2019-01-30T10:28:16.245Z,5.40
2019-01-30T10:30:44.281Z,5.30
2019-01-30T10:33:12.616Z,5.30
2019-01-30T10:35:42.531Z,5.20
2019-01-30T10:38:10.913Z,5.20
2019-01-30T10:40:39.220Z,5.20
2019-01-30T10:43:09.353Z,5.20
2019-01-30T10:45:38.278Z,5.10
2019-01-30T10:48:07.198Z,5.10
2019-01-30T10:50:35.570Z,5.20
2019-01-30T10:53:04.107Z,5.20
2019-01-30T10:55:34.637Z,5.30
2019-01-30T10:58:05.604Z,5.30
2019-01-30T11:00:45.734Z,5.30
2019-01-30T11:03:14.153Z,5.40
2019-01-30T11:05:45.563Z,5.40
2019-01-30T11:08:14.022Z,5.20
2019-01-30T11:10:42.795Z,5.20
2019-01-30T11:13:11.241Z,5.30
2019-01-30T11:15:39.592Z,5.30
2019-01-30T11:18:10.013Z,5.30
2019-01-30T11:20:38.366Z,5.30
2019-01-30T11:23:07.473Z,5.40
2019-01-30T11:25:44.455Z,5.20
2019-01-30T11:28:12.929Z,5.20
2019-01-30T11:30:41.541Z,5.20
2019-01-30T11:33:09.942Z,5.20
2019-01-30T11:35:38.333Z,5.40
2019-01-30T11:38:08.759Z,5.60
2019-01-30T11:40:37.270Z,5.90
2019-01-30T11:43:05.590Z,6.10
2019-01-30T11:45:42.441Z,6.10
2019-01-30T11:48:11.084Z,6.20
2019-01-30T11:50:41.385Z,6.20
2019-01-30T11:53:10.025Z,6.20
2019-01-30T11:55:39.092Z,6.30
2019-01-30T11:58:07.763Z,6.60
2019-01-30T12:00:37.907Z,6.60
2019-01-30T12:03:06.422Z,6.40
2019-01-30T12:05:34.759Z,6.50
2019-01-30T12:08:03.366Z,6.80
2019-01-30T12:10:31.768Z,7.00
2019-01-30T12:13:00.068Z,7.40
2019-01-30T12:15:33.167Z,7.80
2019-01-30T12:18:01.500Z,7.80
2019-01-30T12:20:29.962Z,7.80
2019-01-30T12:22:58.628Z,7.90
2019-01-30T12:25:27.403Z,7.60
2019-01-30T12:27:59.425Z,7.30
2019-01-30T12:30:29.203Z,7.40
2019-01-30T12:32:57.622Z,7.40
2019-01-30T12:35:26.110Z,7.20
2019-01-30T12:37:55.028Z,7.20
2019-01-30T12:40:29.593Z,7.40
2019-01-30T12:43:03.768Z,7.40
2019-01-30T12:45:37.384Z,7.20
2019-01-30T12:48:06.630Z,7.00
2019-01-30T12:50:35.164Z,7.10
2019-01-30T12:53:03.802Z,7.30
2019-01-30T12:55:32.179Z,7.50
2019-01-30T12:58:00.645Z,7.50
2019-01-30T13:00:37.433Z,7.20
2019-01-30T13:03:05.901Z,7.20
2019-01-30T13:05:34.603Z,7.20
2019-01-30T13:08:04.828Z,7.30
2019-01-30T13:10:33.389Z,7.30
2019-01-30T13:13:01.727Z,7.20
2019-01-30T13:15:30.660Z,7.00
2019-01-30T13:18:15.726Z,6.70
2019-01-30T13:20:35.600Z,6.60
2019-01-30T13:23:03.997Z,6.70
2019-01-30T13:25:33.040Z,6.80
2019-01-30T13:28:01.356Z,6.50
2019-01-30T13:30:32.695Z,6.10
2019-01-30T13:33:01.548Z,6.30
2019-01-30T13:35:29.917Z,6.00
2019-01-30T13:38:02.009Z,6.00
2019-01-30T13:40:35.582Z,6.20
2019-01-30T13:43:04.774Z,6.50
2019-01-30T13:45:33.700Z,6.60
2019-01-30T13:48:02.146Z,6.40
2019-01-30T13:50:30.622Z,6.30
2019-01-30T13:52:59.079Z,6.20
2019-01-30T13:55:27.744Z,6.20
2019-01-30T13:57:56.306Z,6.20
2019-01-30T14:01:05.240Z,6.10
2019-01-30T14:03:33.912Z,6.00
2019-01-30T14:06:02.686Z,5.90
2019-01-30T14:08:31.232Z,5.80
2019-01-30T14:10:59.545Z,5.60
2019-01-30T14:13:27.953Z,5.70
2019-01-30T14:15:56.823Z,5.70
2019-01-30T14:18:26.866Z,5.60
2019-01-30T14:20:55.191Z,5.50
2019-01-30T14:23:23.572Z,5.40
2019-01-30T14:25:51.928Z,5.20
2019-01-30T14:28:20.208Z,5.10
2019-01-30T14:30:48.570Z,4.70
2019-01-30T14:33:17.017Z,4.70
2019-01-30T14:35:45.431Z,4.50
2019-01-30T14:38:13.720Z,4.40
2019-01-30T14:40:42.465Z,4.50
2019-01-30T14:43:10.890Z,4.50
2019-01-30T14:45:39.296Z,4.50
2019-01-30T14:48:07.668Z,4.40
2019-01-30T14:50:36.187Z,4.10
2019-01-30T14:53:04.644Z,4.10
2019-01-30T14:55:33.171Z,4.20
2019-01-30T14:58:02.024Z,4.20
2019-01-30T15:00:32.377Z,4.20
2019-01-30T15:03:02.572Z,4.30
2019-01-30T15:05:30.929Z,4.20
2019-01-30T15:08:00.221Z,4.00
2019-01-30T15:10:30.263Z,4.10
2019-01-30T15:12:58.744Z,4.10
2019-01-30T15:15:32.004Z,3.80
2019-01-30T15:18:02.371Z,3.80
2019-01-30T15:20:33.652Z,3.80
2019-01-30T15:23:02.286Z,3.90
2019-01-30T15:25:38.181Z,3.80
2019-01-30T15:28:06.571Z,3.90
2019-01-30T15:30:37.779Z,3.90
2019-01-30T15:33:06.891Z,4.00
2019-01-30T15:35:35.658Z,3.90
2019-01-30T15:38:06.517Z,3.80
2019-01-30T15:40:36.515Z,3.80
2019-01-30T15:43:05.056Z,3.80
2019-01-30T15:45:33.445Z,3.70
2019-01-30T15:48:01.825Z,3.80
2019-01-30T15:50:36.140Z,3.80
2019-01-30T15:53:09.286Z,3.80
2019-01-30T15:55:37.083Z,3.80
2019-01-30T15:58:08.385Z,3.90
2019-01-30T16:01:36.827Z,3.90
2019-01-30T16:04:06.105Z,3.90
2019-01-30T16:06:34.652Z,3.90
2019-01-30T16:09:04.706Z,3.90
2019-01-30T16:11:33.436Z,3.80
2019-01-30T16:14:01.959Z,3.80
2019-01-30T16:16:30.931Z,3.80
2019-01-30T16:21:54.456Z,3.70
2019-01-30T16:24:22.902Z,3.70
2019-01-30T16:26:51.346Z,3.60
2019-01-30T16:29:21.557Z,3.70
2019-01-30T16:31:54.135Z,3.70
2019-01-30T16:34:22.567Z,3.60
2019-01-30T16:36:50.987Z,3.60
2019-01-30T16:39:19.684Z,3.60
2019-01-30T16:41:48.427Z,3.50
2019-01-30T16:44:17.042Z,3.50
2019-01-30T16:46:45.389Z,3.50
2019-01-30T16:49:16.849Z,3.50
2019-01-30T16:51:49.099Z,3.40
2019-01-30T16:54:18.136Z,3.40
2019-01-30T16:56:51.300Z,3.50
2019-01-30T16:59:20.091Z,3.40
2019-01-30T17:01:48.761Z,3.50
2019-01-30T17:04:17.418Z,3.50
2019-01-30T17:06:45.777Z,3.50
2019-01-30T17:09:14.289Z,3.50
2019-01-30T17:11:42.731Z,3.40
2019-01-30T17:14:12.417Z,3.40
2019-01-30T17:16:40.839Z,3.30
2019-01-30T17:19:09.357Z,3.20
2019-01-30T17:21:37.852Z,3.20
2019-01-30T17:24:06.408Z,3.20
2019-01-30T17:26:35.407Z,3.10
2019-01-30T17:29:03.958Z,3.10
2019-01-30T17:31:34.594Z,3.10
2019-01-30T17:34:04.358Z,3.10
2019-01-30T17:36:33.024Z,3.10
2019-01-30T17:39:01.623Z,3.10
2019-01-30T17:41:30.105Z,3.00
2019-01-30T17:43:59.121Z,3.00
2019-01-30T17:46:28.068Z,3.00
2019-01-30T17:48:56.967Z,3.10
2019-01-30T17:51:25.344Z,3.00
2019-01-30T17:53:53.886Z,3.00
2019-01-30T17:56:22.263Z,3.00
2019-01-30T17:58:51.171Z,3.00
2019-01-30T18:01:19.628Z,3.00
2019-01-30T18:03:48.254Z,2.90
2019-01-30T18:06:16.853Z,2.90
2019-01-30T18:08:45.377Z,2.90
2019-01-30T18:11:13.830Z,2.90
2019-01-30T18:13:45.077Z,2.70
2019-01-30T18:16:12.767Z,2.60
2019-01-30T18:18:41.229Z,2.60
2019-01-30T18:21:09.575Z,2.60
2019-01-30T18:23:41.638Z,2.50
2019-01-30T18:26:13.559Z,2.50
2019-01-30T18:28:42.110Z,2.50
2019-01-30T18:31:11.906Z,2.30
2019-01-30T18:33:40.822Z,2.20
2019-01-30T18:36:09.440Z,2.20
2019-01-30T18:38:38.197Z,2.20
2019-01-30T18:41:07.222Z,2.20
2019-01-30T18:43:37.600Z,2.30
2019-01-30T18:46:07.990Z,2.30
2019-01-30T18:48:43.538Z,2.30
2019-01-30T18:51:12.398Z,2.30
2019-01-30T18:53:40.947Z,2.20
2019-01-30T18:56:12.563Z,2.20
2019-01-30T18:58:41.068Z,2.10
2019-01-30T19:01:09.846Z,2.20
2019-01-30T19:03:38.920Z,2.10
2019-01-30T19:06:07.328Z,2.10
2019-01-30T19:08:36.068Z,2.20
2019-01-30T19:11:04.636Z,2.10
2019-01-30T19:13:33.334Z,2.20
2019-01-30T19:16:03.038Z,2.10
2019-01-30T19:18:31.586Z,2.10
2019-01-30T19:21:00.137Z,2.10
2019-01-30T19:23:30.299Z,2.10
2019-01-30T19:25:58.795Z,2.10
2019-01-30T19:28:27.379Z,2.00
2019-01-30T19:30:58.380Z,2.00
2019-01-30T19:33:26.919Z,2.00
2019-01-30T19:35:55.525Z,2.00
2019-01-30T19:38:24.310Z,2.00
2019-01-30T19:40:52.990Z,2.00
2019-01-30T19:43:21.675Z,2.00
2019-01-30T19:45:50.406Z,1.90
2019-01-30T19:48:18.900Z,2.00
2019-01-30T19:50:47.837Z,1.90
2019-01-30T19:53:16.532Z,1.90
2019-01-30T19:55:45.091Z,1.90
2019-01-30T19:58:16.791Z,1.90
2019-01-30T20:00:46.067Z,1.90
2019-01-30T20:03:17.929Z,1.90
2019-01-30T20:05:46.658Z,1.90
2019-01-30T20:08:15.186Z,2.00
2019-01-30T20:10:43.682Z,1.90
2019-01-30T20:13:12.288Z,1.90
2019-01-30T20:15:40.683Z,1.90
2019-01-30T20:18:09.400Z,1.90
2019-01-30T20:20:39.130Z,1.90
2019-01-30T20:23:07.718Z,1.90
2019-01-30T20:25:43.971Z,1.90
2019-01-30T20:28:14.615Z,1.90
2019-01-30T20:30:43.255Z,1.90
2019-01-30T20:33:11.910Z,1.90
2019-01-30T20:35:40.668Z,1.90
2019-01-30T20:38:09.120Z,1.90
2019-01-30T20:40:40.147Z,1.80
2019-01-30T20:43:09.013Z,1.90
2019-01-30T20:45:37.396Z,1.90
2019-01-30T20:48:09.311Z,1.90
2019-01-30T20:50:38.426Z,1.90
2019-01-30T20:53:09.616Z,1.90
2019-01-30T20:55:38.911Z,1.90
2019-01-30T20:58:16.268Z,2.00
2019-01-30T21:00:44.828Z,2.00
2019-01-30T21:03:13.428Z,2.00
2019-01-30T21:05:45.214Z,2.00
2019-01-30T21:08:13.772Z,1.90
2019-01-30T21:10:43.879Z,1.90
2019-01-30T21:13:12.705Z,1.90
2019-01-30T21:15:41.620Z,1.90
2019-01-30T21:18:09.995Z,2.00
2019-01-30T21:20:38.518Z,2.00
2019-01-30T21:23:11.243Z,1.90
2019-01-30T21:25:43.395Z,1.90
2019-01-30T21:28:12.403Z,1.90
2019-01-30T21:30:43.146Z,1.80
2019-01-30T21:33:12.361Z,1.80
2019-01-30T21:35:41.127Z,1.80
2019-01-30T21:38:09.740Z,1.70
2019-01-30T21:40:45.434Z,1.70
2019-01-30T21:43:18.239Z,1.70
2019-01-30T21:45:48.831Z,1.70
2019-01-30T21:48:17.740Z,1.60
2019-01-30T21:50:46.195Z,1.60
2019-01-30T21:53:15.103Z,1.50
2019-01-30T21:55:43.747Z,1.50
2019-01-30T21:58:12.342Z,1.50
2019-01-30T22:00:41.072Z,1.40
2019-01-30T22:03:09.745Z,1.40
2019-01-30T22:05:38.410Z,1.40
2019-01-30T22:08:07.750Z,1.40
2019-01-30T22:10:36.593Z,1.40
2019-01-30T22:13:05.665Z,1.30
2019-01-30T22:15:34.319Z,1.30
2019-01-30T22:18:02.753Z,1.20
2019-01-30T22:20:32.707Z,1.20
2019-01-30T22:23:01.309Z,1.20
2019-01-30T22:25:29.987Z,1.10
2019-01-30T22:28:00.089Z,1.10
2019-01-30T22:30:31.271Z,1.10
2019-01-30T22:32:59.793Z,1.00
2019-01-30T22:35:28.589Z,0.90
2019-01-30T22:37:57.539Z,1.00
2019-01-30T22:40:26.432Z,0.90
2019-01-30T22:42:56.219Z,0.90
2019-01-30T22:45:25.044Z,0.90
2019-01-30T22:47:53.499Z,0.80
2019-01-30T22:50:23.101Z,0.80
2019-01-30T22:52:51.906Z,0.80
2019-01-30T22:55:22.439Z,0.70
2019-01-30T22:57:51.548Z,0.70
2019-01-30T23:00:54.198Z,0.70
2019-01-30T23:03:41.005Z,0.70
2019-01-30T23:06:15.443Z,0.70
2019-01-30T23:09:20.626Z,0.60
2019-01-30T23:12:24.174Z,0.60
2019-01-30T23:15:14.264Z,0.60
2019-01-30T23:18:02.472Z,0.60
2019-01-30T23:20:32.541Z,0.60
2019-01-30T23:23:27.183Z,0.60
2019-01-30T23:26:04.913Z,0.50
2019-01-30T23:28:48.631Z,0.50
2019-01-30T23:31:47.851Z,0.50
2019-01-30T23:34:46.874Z,0.40
2019-01-30T23:37:24.283Z,0.40
2019-01-30T23:39:58.694Z,0.40
2019-01-30T23:42:57.318Z,0.40
2019-01-30T23:45:31.693Z,0.40
2019-01-30T23:48:26.295Z,0.30
2019-01-30T23:51:35.859Z,0.30
2019-01-30T23:54:28.517Z,0.20
2019-01-30T23:57:15.514Z,0.20
